<?xml version="1.0" encoding="utf-8"?>
<gpx xmlns:xsi="http://www.w3.org/2001/XMLSchema-instance" xmlns:xsd="http://www.w3.org/2001/XMLSchema" version="1.1" creator="Shapelink.com" xmlns="http://www.topografix.com/GPX/1/1" xmlns:gpxtpx="http://www.garmin.com/xmlschemas/TrackPointExtension/v1">
  <metadata>
    <name>Löpning 5.06 km, 2019-06-04</name>
    <desc></desc>
    <author><name>Marian Moron</name></author> 
    <time>2019-06-04T19:09:51Z</time>
  </metadata>
  <trk>
    <name>Löpning 5.06 km, 2019-06-04</name>
    <trkseg>
      <trkpt lat="51.21542149419" lon="4.483417038311">
        <ele>0</ele>
        <time>2019-06-04T19:09:51Z</time>
      </trkpt>
      <trkpt lat="51.215420488362" lon="4.48310363907">
        <ele>0</ele>
        <time>2019-06-04T19:09:57Z</time>
      </trkpt>
      <trkpt lat="51.215363742899" lon="4.482822593963">
        <ele>0</ele>
        <time>2019-06-04T19:10:03Z</time>
      </trkpt>
      <trkpt lat="51.215231057422" lon="4.482608184961">
        <ele>0</ele>
        <time>2019-06-04T19:10:09Z</time>
      </trkpt>
      <trkpt lat="51.215045817432" lon="4.482482624099">
        <ele>0</ele>
        <time>2019-06-04T19:10:17Z</time>
      </trkpt>
      <trkpt lat="51.214857308501" lon="4.482503662668">
        <ele>0</ele>
        <time>2019-06-04T19:10:25Z</time>
      </trkpt>
      <trkpt lat="51.214694532003" lon="4.482625284037">
        <ele>0</ele>
        <time>2019-06-04T19:10:33Z</time>
      </trkpt>
      <trkpt lat="51.214571150435" lon="4.482879423245">
        <ele>0</ele>
        <time>2019-06-04T19:10:41Z</time>
      </trkpt>
      <trkpt lat="51.214543741622" lon="4.483159294886">
        <ele>0</ele>
        <time>2019-06-04T19:10:48Z</time>
      </trkpt>
      <trkpt lat="51.214561427431" lon="4.483467078254">
        <ele>0</ele>
        <time>2019-06-04T19:10:55Z</time>
      </trkpt>
      <trkpt lat="51.214579364697" lon="4.48376078003">
        <ele>0</ele>
        <time>2019-06-04T19:11:02Z</time>
      </trkpt>
      <trkpt lat="51.21458749514" lon="4.48405749929">
        <ele>0.2</ele>
        <time>2019-06-04T19:11:09Z</time>
      </trkpt>
      <trkpt lat="51.214598056334" lon="4.484346339564">
        <ele>0</ele>
        <time>2019-06-04T19:11:16Z</time>
      </trkpt>
      <trkpt lat="51.21467885785" lon="4.484639286969">
        <ele>0</ele>
        <time>2019-06-04T19:11:24Z</time>
      </trkpt>
      <trkpt lat="51.214816404829" lon="4.484830645746">
        <ele>0</ele>
        <time>2019-06-04T19:11:31Z</time>
      </trkpt>
      <trkpt lat="51.214999214068" lon="4.48490490938">
        <ele>0</ele>
        <time>2019-06-04T19:11:39Z</time>
      </trkpt>
      <trkpt lat="51.215192919777" lon="4.484854282704">
        <ele>0</ele>
        <time>2019-06-04T19:11:47Z</time>
      </trkpt>
      <trkpt lat="51.215344213072" lon="4.484688069627">
        <ele>0</ele>
        <time>2019-06-04T19:11:54Z</time>
      </trkpt>
      <trkpt lat="51.215444209139" lon="4.484418004809">
        <ele>0</ele>
        <time>2019-06-04T19:12:01Z</time>
      </trkpt>
      <trkpt lat="51.215462146405" lon="4.484104773206">
        <ele>0</ele>
        <time>2019-06-04T19:12:08Z</time>
      </trkpt>
      <trkpt lat="51.21543909618" lon="4.483805958471">
        <ele>1</ele>
        <time>2019-06-04T19:12:15Z</time>
      </trkpt>
      <trkpt lat="51.215425098407" lon="4.48350680846">
        <ele>1</ele>
        <time>2019-06-04T19:12:22Z</time>
      </trkpt>
      <trkpt lat="51.215416548869" lon="4.483198438359">
        <ele>1</ele>
        <time>2019-06-04T19:12:29Z</time>
      </trkpt>
      <trkpt lat="51.215373382084" lon="4.482901467642">
        <ele>0.8</ele>
        <time>2019-06-04T19:12:36Z</time>
      </trkpt>
      <trkpt lat="51.215259472063" lon="4.482665684795">
        <ele>0.4</ele>
        <time>2019-06-04T19:12:43Z</time>
      </trkpt>
      <trkpt lat="51.215099293954" lon="4.482514642957">
        <ele>0.2</ele>
        <time>2019-06-04T19:12:50Z</time>
      </trkpt>
      <trkpt lat="51.21491941838" lon="4.482475164208">
        <ele>0.2</ele>
        <time>2019-06-04T19:12:57Z</time>
      </trkpt>
      <trkpt lat="51.214744991041" lon="4.48255294824">
        <ele>0</ele>
        <time>2019-06-04T19:13:04Z</time>
      </trkpt>
      <trkpt lat="51.214603253112" lon="4.482752688917">
        <ele>0</ele>
        <time>2019-06-04T19:13:11Z</time>
      </trkpt>
      <trkpt lat="51.214532593695" lon="4.483030632721">
        <ele>0</ele>
        <time>2019-06-04T19:13:18Z</time>
      </trkpt>
      <trkpt lat="51.214540388862" lon="4.483359035563">
        <ele>0</ele>
        <time>2019-06-04T19:13:25Z</time>
      </trkpt>
      <trkpt lat="51.214551788246" lon="4.483690623527">
        <ele>0</ele>
        <time>2019-06-04T19:13:32Z</time>
      </trkpt>
      <trkpt lat="51.214568384408" lon="4.483980301991">
        <ele>0</ele>
        <time>2019-06-04T19:13:38Z</time>
      </trkpt>
      <trkpt lat="51.214583471828" lon="4.484286744255">
        <ele>0</ele>
        <time>2019-06-04T19:13:45Z</time>
      </trkpt>
      <trkpt lat="51.214637870359" lon="4.484578769651">
        <ele>0</ele>
        <time>2019-06-04T19:13:52Z</time>
      </trkpt>
      <trkpt lat="51.214759659366" lon="4.484804410399">
        <ele>0</ele>
        <time>2019-06-04T19:13:59Z</time>
      </trkpt>
      <trkpt lat="51.214933416153" lon="4.484907675407">
        <ele>0</ele>
        <time>2019-06-04T19:14:05Z</time>
      </trkpt>
      <trkpt lat="51.215134665572" lon="4.48489401291">
        <ele>0</ele>
        <time>2019-06-04T19:14:12Z</time>
      </trkpt>
      <trkpt lat="51.215296855337" lon="4.484766105116">
        <ele>0</ele>
        <time>2019-06-04T19:14:18Z</time>
      </trkpt>
      <trkpt lat="51.215422248561" lon="4.484527556242">
        <ele>0</ele>
        <time>2019-06-04T19:14:24Z</time>
      </trkpt>
      <trkpt lat="51.215470863581" lon="4.484235027932">
        <ele>0</ele>
        <time>2019-06-04T19:14:30Z</time>
      </trkpt>
      <trkpt lat="51.215457787817" lon="4.483912827696">
        <ele>0</ele>
        <time>2019-06-04T19:14:37Z</time>
      </trkpt>
      <trkpt lat="51.215438341809" lon="4.483627256363">
        <ele>0</ele>
        <time>2019-06-04T19:14:43Z</time>
      </trkpt>
      <trkpt lat="51.215422835294" lon="4.483330034189">
        <ele>0</ele>
        <time>2019-06-04T19:14:49Z</time>
      </trkpt>
      <trkpt lat="51.215409843349" lon="4.482999032958">
        <ele>0</ele>
        <time>2019-06-04T19:14:56Z</time>
      </trkpt>
      <trkpt lat="51.215314792603" lon="4.482709941227">
        <ele>0</ele>
        <time>2019-06-04T19:15:03Z</time>
      </trkpt>
      <trkpt lat="51.214983707553" lon="4.482474409837">
        <ele>0</ele>
        <time>2019-06-04T19:15:15Z</time>
      </trkpt>
      <trkpt lat="51.214804251074" lon="4.482513469491">
        <ele>0</ele>
        <time>2019-06-04T19:15:21Z</time>
      </trkpt>
      <trkpt lat="51.214648431553" lon="4.482681275129">
        <ele>0</ele>
        <time>2019-06-04T19:15:27Z</time>
      </trkpt>
      <trkpt lat="51.214548603124" lon="4.482929379369">
        <ele>0</ele>
        <time>2019-06-04T19:15:33Z</time>
      </trkpt>
      <trkpt lat="51.214528905659" lon="4.483229619027">
        <ele>0</ele>
        <time>2019-06-04T19:15:39Z</time>
      </trkpt>
      <trkpt lat="51.214551788246" lon="4.483562548095">
        <ele>0</ele>
        <time>2019-06-04T19:15:46Z</time>
      </trkpt>
      <trkpt lat="51.214568887322" lon="4.483854238215">
        <ele>0</ele>
        <time>2019-06-04T19:15:52Z</time>
      </trkpt>
      <trkpt lat="51.214603001655" lon="4.484170235845">
        <ele>0</ele>
        <time>2019-06-04T19:15:59Z</time>
      </trkpt>
      <trkpt lat="51.214629991373" lon="4.484463015612">
        <ele>0</ele>
        <time>2019-06-04T19:16:05Z</time>
      </trkpt>
      <trkpt lat="51.214729316888" lon="4.48472302215">
        <ele>0</ele>
        <time>2019-06-04T19:16:12Z</time>
      </trkpt>
      <trkpt lat="51.21490768372" lon="4.484882864983">
        <ele>0</ele>
        <time>2019-06-04T19:16:19Z</time>
      </trkpt>
      <trkpt lat="51.215091917882" lon="4.48489149834">
        <ele>0</ele>
        <time>2019-06-04T19:16:25Z</time>
      </trkpt>
      <trkpt lat="51.215257292769" lon="4.484779516156">
        <ele>0</ele>
        <time>2019-06-04T19:16:31Z</time>
      </trkpt>
      <trkpt lat="51.215386374029" lon="4.48457047157">
        <ele>0</ele>
        <time>2019-06-04T19:16:37Z</time>
      </trkpt>
      <trkpt lat="51.21546172731" lon="4.484286828074">
        <ele>0</ele>
        <time>2019-06-04T19:16:43Z</time>
      </trkpt>
      <trkpt lat="51.215454099781" lon="4.483994886497">
        <ele>0</ele>
        <time>2019-06-04T19:16:49Z</time>
      </trkpt>
      <trkpt lat="51.215428954081" lon="4.483701017083">
        <ele>3.4</ele>
        <time>2019-06-04T19:16:55Z</time>
      </trkpt>
      <trkpt lat="51.215410430082" lon="4.48339868195">
        <ele>5.4</ele>
        <time>2019-06-04T19:17:01Z</time>
      </trkpt>
      <trkpt lat="51.215400623259" lon="4.483069943832">
        <ele>5.8</ele>
        <time>2019-06-04T19:17:08Z</time>
      </trkpt>
      <trkpt lat="51.215341782321" lon="4.482801136299">
        <ele>5.4</ele>
        <time>2019-06-04T19:17:14Z</time>
      </trkpt>
      <trkpt lat="51.215211192319" lon="4.482596953215">
        <ele>4.4</ele>
        <time>2019-06-04T19:17:20Z</time>
      </trkpt>
      <trkpt lat="51.215025281777" lon="4.482485473945">
        <ele>3.4</ele>
        <time>2019-06-04T19:17:27Z</time>
      </trkpt>
      <trkpt lat="51.214824619091" lon="4.482508607989">
        <ele>0</ele>
        <time>2019-06-04T19:17:34Z</time>
      </trkpt>
      <trkpt lat="51.214668967208" lon="4.48265101647">
        <ele>0</ele>
        <time>2019-06-04T19:17:40Z</time>
      </trkpt>
      <trkpt lat="51.214553799902" lon="4.482879758521">
        <ele>0</ele>
        <time>2019-06-04T19:17:46Z</time>
      </trkpt>
      <trkpt lat="51.214531504048" lon="4.483167173872">
        <ele>0</ele>
        <time>2019-06-04T19:17:52Z</time>
      </trkpt>
      <trkpt lat="51.214547094382" lon="4.483466491521">
        <ele>0</ele>
        <time>2019-06-04T19:17:58Z</time>
      </trkpt>
      <trkpt lat="51.214567965313" lon="4.483771592681">
        <ele>0</ele>
        <time>2019-06-04T19:18:04Z</time>
      </trkpt>
      <trkpt lat="51.21457659867" lon="4.484060684412">
        <ele>0</ele>
        <time>2019-06-04T19:18:10Z</time>
      </trkpt>
      <trkpt lat="51.214598643067" lon="4.484354637645">
        <ele>0</ele>
        <time>2019-06-04T19:18:16Z</time>
      </trkpt>
      <trkpt lat="51.214649856476" lon="4.484628809594">
        <ele>0</ele>
        <time>2019-06-04T19:18:22Z</time>
      </trkpt>
      <trkpt lat="51.214785140342" lon="4.48485629436">
        <ele>0</ele>
        <time>2019-06-04T19:18:29Z</time>
      </trkpt>
      <trkpt lat="51.214981276802" lon="4.484945729233">
        <ele>0</ele>
        <time>2019-06-04T19:18:36Z</time>
      </trkpt>
      <trkpt lat="51.21516165529" lon="4.484902646267">
        <ele>0</ele>
        <time>2019-06-04T19:18:42Z</time>
      </trkpt>
      <trkpt lat="51.215321079028" lon="4.484748084031">
        <ele>0</ele>
        <time>2019-06-04T19:18:48Z</time>
      </trkpt>
      <trkpt lat="51.215429373176" lon="4.484507020587">
        <ele>0</ele>
        <time>2019-06-04T19:18:54Z</time>
      </trkpt>
      <trkpt lat="51.215459799473" lon="4.484217174485">
        <ele>0</ele>
        <time>2019-06-04T19:19:00Z</time>
      </trkpt>
      <trkpt lat="51.215437335981" lon="4.483890364204">
        <ele>0</ele>
        <time>2019-06-04T19:19:07Z</time>
      </trkpt>
      <trkpt lat="51.215432558298" lon="4.483601691568">
        <ele>0</ele>
        <time>2019-06-04T19:19:13Z</time>
      </trkpt>
      <trkpt lat="51.215418476706" lon="4.483311845466">
        <ele>0</ele>
        <time>2019-06-04T19:19:19Z</time>
      </trkpt>
      <trkpt lat="51.215398946879" lon="4.48302233464">
        <ele>0</ele>
        <time>2019-06-04T19:19:25Z</time>
      </trkpt>
      <trkpt lat="51.215299872821" lon="4.482742127723">
        <ele>0</ele>
        <time>2019-06-04T19:19:32Z</time>
      </trkpt>
      <trkpt lat="51.215159559815" lon="4.48255462462">
        <ele>0</ele>
        <time>2019-06-04T19:19:38Z</time>
      </trkpt>
      <trkpt lat="51.214969123047" lon="4.482471476172">
        <ele>0</ele>
        <time>2019-06-04T19:19:45Z</time>
      </trkpt>
      <trkpt lat="51.21477944065" lon="4.482531071481">
        <ele>0</ele>
        <time>2019-06-04T19:19:52Z</time>
      </trkpt>
      <trkpt lat="51.214612724659" lon="4.482722765534">
        <ele>0</ele>
        <time>2019-06-04T19:19:59Z</time>
      </trkpt>
      <trkpt lat="51.214539885948" lon="4.482991656886">
        <ele>0</ele>
        <time>2019-06-04T19:20:05Z</time>
      </trkpt>
      <trkpt lat="51.214553548445" lon="4.483360795762">
        <ele>0</ele>
        <time>2019-06-04T19:20:12Z</time>
      </trkpt>
      <trkpt lat="51.214578442688" lon="4.483667657121">
        <ele>0.8</ele>
        <time>2019-06-04T19:20:18Z</time>
      </trkpt>
      <trkpt lat="51.214597888696" lon="4.483975105213">
        <ele>3</ele>
        <time>2019-06-04T19:20:24Z</time>
      </trkpt>
      <trkpt lat="51.214614820134" lon="4.484285570789">
        <ele>3.6</ele>
        <time>2019-06-04T19:20:30Z</time>
      </trkpt>
      <trkpt lat="51.214662513145" lon="4.484565023335">
        <ele>3.4</ele>
        <time>2019-06-04T19:20:36Z</time>
      </trkpt>
      <trkpt lat="51.214787654912" lon="4.484805500046">
        <ele>2</ele>
        <time>2019-06-04T19:20:43Z</time>
      </trkpt>
      <trkpt lat="51.214981025345" lon="4.484915302936">
        <ele>0.4</ele>
        <time>2019-06-04T19:20:50Z</time>
      </trkpt>
      <trkpt lat="51.215180430746" lon="4.484884206087">
        <ele>0</ele>
        <time>2019-06-04T19:20:56Z</time>
      </trkpt>
      <trkpt lat="51.215345721814" lon="4.484724363254">
        <ele>0</ele>
        <time>2019-06-04T19:21:02Z</time>
      </trkpt>
      <trkpt lat="51.215446220795" lon="4.484455974816">
        <ele>1</ele>
        <time>2019-06-04T19:21:08Z</time>
      </trkpt>
      <trkpt lat="51.215459045102" lon="4.484141569747">
        <ele>2.4</ele>
        <time>2019-06-04T19:21:14Z</time>
      </trkpt>
      <trkpt lat="51.215436665429" lon="4.483831104171">
        <ele>2.8</ele>
        <time>2019-06-04T19:21:20Z</time>
      </trkpt>
      <trkpt lat="51.215427780615" lon="4.48351854312">
        <ele>2.6</ele>
        <time>2019-06-04T19:21:26Z</time>
      </trkpt>
      <trkpt lat="51.215421075095" lon="4.483210675933">
        <ele>1</ele>
        <time>2019-06-04T19:21:32Z</time>
      </trkpt>
      <trkpt lat="51.215375561378" lon="4.48290247347">
        <ele>1.2</ele>
        <time>2019-06-04T19:21:38Z</time>
      </trkpt>
      <trkpt lat="51.215245558109" lon="4.482650262099">
        <ele>0.2</ele>
        <time>2019-06-04T19:21:44Z</time>
      </trkpt>
      <trkpt lat="51.215068280924" lon="4.482507602161">
        <ele>0</ele>
        <time>2019-06-04T19:21:50Z</time>
      </trkpt>
      <trkpt lat="51.214875581043" lon="4.482492766198">
        <ele>0</ele>
        <time>2019-06-04T19:21:56Z</time>
      </trkpt>
      <trkpt lat="51.214713056002" lon="4.482612040635">
        <ele>0</ele>
        <time>2019-06-04T19:22:02Z</time>
      </trkpt>
      <trkpt lat="51.214593111013" lon="4.48284547655">
        <ele>0</ele>
        <time>2019-06-04T19:22:08Z</time>
      </trkpt>
      <trkpt lat="51.214541310871" lon="4.4831346521">
        <ele>0</ele>
        <time>2019-06-04T19:22:14Z</time>
      </trkpt>
      <trkpt lat="51.214545920916" lon="4.483445788228">
        <ele>0.2</ele>
        <time>2019-06-04T19:22:20Z</time>
      </trkpt>
      <trkpt lat="51.214558912861" lon="4.483732197751">
        <ele>1.2</ele>
        <time>2019-06-04T19:22:26Z</time>
      </trkpt>
      <trkpt lat="51.214570982797" lon="4.484038723834">
        <ele>1.6</ele>
        <time>2019-06-04T19:22:32Z</time>
      </trkpt>
      <trkpt lat="51.214585734941" lon="4.484360253518">
        <ele>1.6</ele>
        <time>2019-06-04T19:22:38Z</time>
      </trkpt>
      <trkpt lat="51.214659998575" lon="4.484651859819">
        <ele>2</ele>
        <time>2019-06-04T19:22:44Z</time>
      </trkpt>
      <trkpt lat="51.214803580522" lon="4.484854701799">
        <ele>0.6</ele>
        <time>2019-06-04T19:22:50Z</time>
      </trkpt>
      <trkpt lat="51.214989155788" lon="4.484933910754">
        <ele>0.2</ele>
        <time>2019-06-04T19:22:56Z</time>
      </trkpt>
      <trkpt lat="51.215192584501" lon="4.484881356241">
        <ele>0</ele>
        <time>2019-06-04T19:23:02Z</time>
      </trkpt>
      <trkpt lat="51.215356031551" lon="4.484695110423">
        <ele>0</ele>
        <time>2019-06-04T19:23:08Z</time>
      </trkpt>
      <trkpt lat="51.215442365121" lon="4.484445078346">
        <ele>0</ele>
        <time>2019-06-04T19:23:13Z</time>
      </trkpt>
      <trkpt lat="51.215461140577" lon="4.48411617259">
        <ele>0</ele>
        <time>2019-06-04T19:23:19Z</time>
      </trkpt>
      <trkpt lat="51.215444795872" lon="4.483818447502">
        <ele>0</ele>
        <time>2019-06-04T19:23:25Z</time>
      </trkpt>
      <trkpt lat="51.215423505846" lon="4.483521141509">
        <ele>0</ele>
        <time>2019-06-04T19:23:31Z</time>
      </trkpt>
      <trkpt lat="51.215408753702" lon="4.483201372024">
        <ele>0</ele>
        <time>2019-06-04T19:23:37Z</time>
      </trkpt>
      <trkpt lat="51.215368772039" lon="4.482916135967">
        <ele>0</ele>
        <time>2019-06-04T19:23:43Z</time>
      </trkpt>
      <trkpt lat="51.215255364932" lon="4.482672893229">
        <ele>0</ele>
        <time>2019-06-04T19:23:49Z</time>
      </trkpt>
      <trkpt lat="51.215087726932" lon="4.482510284369">
        <ele>0</ele>
        <time>2019-06-04T19:23:55Z</time>
      </trkpt>
      <trkpt lat="51.214904079503" lon="4.482478265511">
        <ele>0</ele>
        <time>2019-06-04T19:24:01Z</time>
      </trkpt>
      <trkpt lat="51.214723533377" lon="4.482595444473">
        <ele>0</ele>
        <time>2019-06-04T19:24:08Z</time>
      </trkpt>
      <trkpt lat="51.214598475429" lon="4.482827539284">
        <ele>0</ele>
        <time>2019-06-04T19:24:14Z</time>
      </trkpt>
      <trkpt lat="51.214537287559" lon="4.483130796426">
        <ele>0</ele>
        <time>2019-06-04T19:24:20Z</time>
      </trkpt>
      <trkpt lat="51.214546088554" lon="4.483433634473">
        <ele>0.2</ele>
        <time>2019-06-04T19:24:26Z</time>
      </trkpt>
      <trkpt lat="51.214575676661" lon="4.483736556339">
        <ele>1.8</ele>
        <time>2019-06-04T19:24:32Z</time>
      </trkpt>
      <trkpt lat="51.214588500968" lon="4.484039226748">
        <ele>3</ele>
        <time>2019-06-04T19:24:38Z</time>
      </trkpt>
      <trkpt lat="51.214647509544" lon="4.484622187893">
        <ele>4.8</ele>
        <time>2019-06-04T19:24:50Z</time>
      </trkpt>
      <trkpt lat="51.214768963275" lon="4.484832489764">
        <ele>4</ele>
        <time>2019-06-04T19:24:57Z</time>
      </trkpt>
      <trkpt lat="51.214939702578" lon="4.484937263514">
        <ele>1.8</ele>
        <time>2019-06-04T19:25:04Z</time>
      </trkpt>
      <trkpt lat="51.215119075238" lon="4.484925445035">
        <ele>0</ele>
        <time>2019-06-04T19:25:11Z</time>
      </trkpt>
      <trkpt lat="51.215283779573" lon="4.484799884173">
        <ele>0</ele>
        <time>2019-06-04T19:25:18Z</time>
      </trkpt>
      <trkpt lat="51.215424176398" lon="4.484570052475">
        <ele>0</ele>
        <time>2019-06-04T19:25:25Z</time>
      </trkpt>
      <trkpt lat="51.215470612124" lon="4.4842745905">
        <ele>0</ele>
        <time>2019-06-04T19:25:32Z</time>
      </trkpt>
      <trkpt lat="51.215449741193" lon="4.483967980598">
        <ele>0</ele>
        <time>2019-06-04T19:25:39Z</time>
      </trkpt>
      <trkpt lat="51.215431133375" lon="4.483659275221">
        <ele>0</ele>
        <time>2019-06-04T19:25:46Z</time>
      </trkpt>
      <trkpt lat="51.215420320724" lon="4.483348642007">
        <ele>0</ele>
        <time>2019-06-04T19:25:53Z</time>
      </trkpt>
      <trkpt lat="51.21540221582" lon="4.483037757336">
        <ele>0</ele>
        <time>2019-06-04T19:26:00Z</time>
      </trkpt>
      <trkpt lat="51.215318229182" lon="4.482771548192">
        <ele>0</ele>
        <time>2019-06-04T19:26:07Z</time>
      </trkpt>
      <trkpt lat="51.215182526221" lon="4.482571304601">
        <ele>0</ele>
        <time>2019-06-04T19:26:14Z</time>
      </trkpt>
      <trkpt lat="51.215002315371" lon="4.482478516968">
        <ele>0</ele>
        <time>2019-06-04T19:26:21Z</time>
      </trkpt>
      <trkpt lat="51.214819422313" lon="4.482518079536">
        <ele>0</ele>
        <time>2019-06-04T19:26:28Z</time>
      </trkpt>
      <trkpt lat="51.214652622503" lon="4.482680269301">
        <ele>0</ele>
        <time>2019-06-04T19:26:36Z</time>
      </trkpt>
      <trkpt lat="51.214549692771" lon="4.482937593631">
        <ele>0</ele>
        <time>2019-06-04T19:26:43Z</time>
      </trkpt>
      <trkpt lat="51.21452882184" lon="4.483264068636">
        <ele>0</ele>
        <time>2019-06-04T19:26:50Z</time>
      </trkpt>
      <trkpt lat="51.214544831269" lon="4.483572606375">
        <ele>0</ele>
        <time>2019-06-04T19:26:57Z</time>
      </trkpt>
      <trkpt lat="51.214562684716" lon="4.483865469961">
        <ele>0</ele>
        <time>2019-06-04T19:27:04Z</time>
      </trkpt>
      <trkpt lat="51.214574838471" lon="4.484161853945">
        <ele>0.2</ele>
        <time>2019-06-04T19:27:11Z</time>
      </trkpt>
      <trkpt lat="51.214604845673" lon="4.484454214617">
        <ele>0.4</ele>
        <time>2019-06-04T19:27:18Z</time>
      </trkpt>
      <trkpt lat="51.21469645984" lon="4.484704498151">
        <ele>0</ele>
        <time>2019-06-04T19:27:25Z</time>
      </trkpt>
      <trkpt lat="51.214840963796" lon="4.484881942974">
        <ele>0</ele>
        <time>2019-06-04T19:27:32Z</time>
      </trkpt>
      <trkpt lat="51.215035591514" lon="4.484936592962">
        <ele>1.4</ele>
        <time>2019-06-04T19:27:40Z</time>
      </trkpt>
      <trkpt lat="51.215221250599" lon="4.484844475881">
        <ele>2.6</ele>
        <time>2019-06-04T19:27:47Z</time>
      </trkpt>
      <trkpt lat="51.215365922193" lon="4.484634928381">
        <ele>2.2</ele>
        <time>2019-06-04T19:27:54Z</time>
      </trkpt>
      <trkpt lat="51.215443790044" lon="4.484350614333">
        <ele>0.6</ele>
        <time>2019-06-04T19:28:01Z</time>
      </trkpt>
      <trkpt lat="51.215442616578" lon="4.484284397323">
        <ele>0</ele>
        <time>2019-06-04T19:28:03Z</time>
      </trkpt>
      <trkpt lat="51.215407161141" lon="4.4843416457">
        <ele>0</ele>
        <time>2019-06-04T19:28:07Z</time>
      </trkpt>
      <trkpt lat="51.21537204098" lon="4.484655380217">
        <ele>0</ele>
        <time>2019-06-04T19:28:14Z</time>
      </trkpt>
      <trkpt lat="51.215214796536" lon="4.484864508622">
        <ele>0</ele>
        <time>2019-06-04T19:28:21Z</time>
      </trkpt>
      <trkpt lat="51.215038944274" lon="4.484940448636">
        <ele>0</ele>
        <time>2019-06-04T19:28:27Z</time>
      </trkpt>
      <trkpt lat="51.214859152519" lon="4.484901724258">
        <ele>0</ele>
        <time>2019-06-04T19:28:33Z</time>
      </trkpt>
      <trkpt lat="51.214681791515" lon="4.484738025751">
        <ele>0.2</ele>
        <time>2019-06-04T19:28:40Z</time>
      </trkpt>
      <trkpt lat="51.214560421603" lon="4.484477097204">
        <ele>0.8</ele>
        <time>2019-06-04T19:28:47Z</time>
      </trkpt>
      <trkpt lat="51.214518428284" lon="4.484171912225">
        <ele>1.8</ele>
        <time>2019-06-04T19:28:54Z</time>
      </trkpt>
      <trkpt lat="51.214506693624" lon="4.483859602631">
        <ele>0.4</ele>
        <time>2019-06-04T19:29:01Z</time>
      </trkpt>
      <trkpt lat="51.214503843778" lon="4.48354201244">
        <ele>0</ele>
        <time>2019-06-04T19:29:08Z</time>
      </trkpt>
      <trkpt lat="51.214498479362" lon="4.483229199932">
        <ele>0.4</ele>
        <time>2019-06-04T19:29:15Z</time>
      </trkpt>
      <trkpt lat="51.214531671686" lon="4.482933821776">
        <ele>0.2</ele>
        <time>2019-06-04T19:29:22Z</time>
      </trkpt>
      <trkpt lat="51.214633008857" lon="4.482687142459">
        <ele>0.4</ele>
        <time>2019-06-04T19:29:28Z</time>
      </trkpt>
      <trkpt lat="51.214801736504" lon="4.482504081763">
        <ele>0.8</ele>
        <time>2019-06-04T19:29:35Z</time>
      </trkpt>
      <trkpt lat="51.215004159389" lon="4.482455131467">
        <ele>1</ele>
        <time>2019-06-04T19:29:42Z</time>
      </trkpt>
      <trkpt lat="51.215195937261" lon="4.482537106449">
        <ele>0</ele>
        <time>2019-06-04T19:29:49Z</time>
      </trkpt>
      <trkpt lat="51.215349158393" lon="4.482732907633">
        <ele>0</ele>
        <time>2019-06-04T19:29:56Z</time>
      </trkpt>
      <trkpt lat="51.215441107836" lon="4.483019987708">
        <ele>0</ele>
        <time>2019-06-04T19:30:03Z</time>
      </trkpt>
      <trkpt lat="51.215465582984" lon="4.483600937197">
        <ele>1</ele>
        <time>2019-06-04T19:30:16Z</time>
      </trkpt>
      <trkpt lat="51.215475725083" lon="4.483900506303">
        <ele>1.4</ele>
        <time>2019-06-04T19:30:23Z</time>
      </trkpt>
      <trkpt lat="51.215487962657" lon="4.484189346577">
        <ele>1.2</ele>
        <time>2019-06-04T19:30:30Z</time>
      </trkpt>
      <trkpt lat="51.215447897175" lon="4.484503500189">
        <ele>0</ele>
        <time>2019-06-04T19:30:38Z</time>
      </trkpt>
      <trkpt lat="51.215345637995" lon="4.484761327433">
        <ele>0</ele>
        <time>2019-06-04T19:30:45Z</time>
      </trkpt>
      <trkpt lat="51.215194679976" lon="4.484921421723">
        <ele>0</ele>
        <time>2019-06-04T19:30:51Z</time>
      </trkpt>
      <trkpt lat="51.215012373651" lon="4.484965678155">
        <ele>0</ele>
        <time>2019-06-04T19:30:57Z</time>
      </trkpt>
      <trkpt lat="51.214819506132" lon="4.484885798648">
        <ele>0</ele>
        <time>2019-06-04T19:31:04Z</time>
      </trkpt>
      <trkpt lat="51.214661004403" lon="4.484698798459">
        <ele>0</ele>
        <time>2019-06-04T19:31:11Z</time>
      </trkpt>
      <trkpt lat="51.214558829042" lon="4.48443803755">
        <ele>0.6</ele>
        <time>2019-06-04T19:31:18Z</time>
      </trkpt>
      <trkpt lat="51.214532677514" lon="4.48413545096">
        <ele>1.6</ele>
        <time>2019-06-04T19:31:25Z</time>
      </trkpt>
      <trkpt lat="51.214523205967" lon="4.483818950416">
        <ele>1.4</ele>
        <time>2019-06-04T19:31:32Z</time>
      </trkpt>
      <trkpt lat="51.21451792537" lon="4.483497504551">
        <ele>0</ele>
        <time>2019-06-04T19:31:39Z</time>
      </trkpt>
      <trkpt lat="51.214503340864" lon="4.483185697871">
        <ele>0</ele>
        <time>2019-06-04T19:31:46Z</time>
      </trkpt>
      <trkpt lat="51.214538712482" lon="4.482904904221">
        <ele>0</ele>
        <time>2019-06-04T19:31:52Z</time>
      </trkpt>
      <trkpt lat="51.214649437381" lon="4.482658895456">
        <ele>0</ele>
        <time>2019-06-04T19:31:58Z</time>
      </trkpt>
      <trkpt lat="51.214797964649" lon="4.482489161981">
        <ele>0</ele>
        <time>2019-06-04T19:32:04Z</time>
      </trkpt>
      <trkpt lat="51.214994939299" lon="4.482434344355">
        <ele>0.6</ele>
        <time>2019-06-04T19:32:11Z</time>
      </trkpt>
      <trkpt lat="51.215186214257" lon="4.48253869901">
        <ele>2.2</ele>
        <time>2019-06-04T19:32:18Z</time>
      </trkpt>
      <trkpt lat="51.215343123425" lon="4.482741792447">
        <ele>2.6</ele>
        <time>2019-06-04T19:32:25Z</time>
      </trkpt>
      <trkpt lat="51.215423673484" lon="4.482995764017">
        <ele>2.6</ele>
        <time>2019-06-04T19:32:31Z</time>
      </trkpt>
      <trkpt lat="51.215449322098" lon="4.483280916255">
        <ele>1.8</ele>
        <time>2019-06-04T19:32:37Z</time>
      </trkpt>
      <trkpt lat="51.215468265192" lon="4.48361325859">
        <ele>0.6</ele>
        <time>2019-06-04T19:32:44Z</time>
      </trkpt>
      <trkpt lat="51.215468768106" lon="4.483928669487">
        <ele>0</ele>
        <time>2019-06-04T19:32:51Z</time>
      </trkpt>
      <trkpt lat="51.215465666803" lon="4.484215665743">
        <ele>0</ele>
        <time>2019-06-04T19:32:58Z</time>
      </trkpt>
      <trkpt lat="51.215435408144" lon="4.484526298957">
        <ele>0</ele>
        <time>2019-06-04T19:33:05Z</time>
      </trkpt>
      <trkpt lat="51.215336166448" lon="4.484781443993">
        <ele>1.2</ele>
        <time>2019-06-04T19:33:12Z</time>
      </trkpt>
      <trkpt lat="51.215157967254" lon="4.484915135298">
        <ele>1.4</ele>
        <time>2019-06-04T19:33:19Z</time>
      </trkpt>
      <trkpt lat="51.214962501346" lon="4.484970539657">
        <ele>1</ele>
        <time>2019-06-04T19:33:26Z</time>
      </trkpt>
      <trkpt lat="51.214772818949" lon="4.484862748423">
        <ele>1.2</ele>
        <time>2019-06-04T19:33:33Z</time>
      </trkpt>
      <trkpt lat="51.214638037997" lon="4.484674826225">
        <ele>1</ele>
        <time>2019-06-04T19:33:40Z</time>
      </trkpt>
      <trkpt lat="51.214550782418" lon="4.484402665932">
        <ele>0</ele>
        <time>2019-06-04T19:33:47Z</time>
      </trkpt>
      <trkpt lat="51.214528067469" lon="4.484081136248">
        <ele>0</ele>
        <time>2019-06-04T19:33:54Z</time>
      </trkpt>
      <trkpt lat="51.214520607578" lon="4.483786177187">
        <ele>0</ele>
        <time>2019-06-04T19:34:01Z</time>
      </trkpt>
      <trkpt lat="51.214520691397" lon="4.483475041059">
        <ele>0</ele>
        <time>2019-06-04T19:34:08Z</time>
      </trkpt>
      <trkpt lat="51.214528486564" lon="4.483159211067">
        <ele>0</ele>
        <time>2019-06-04T19:34:16Z</time>
      </trkpt>
      <trkpt lat="51.214569222598" lon="4.48286894587">
        <ele>1.6</ele>
        <time>2019-06-04T19:34:23Z</time>
      </trkpt>
      <trkpt lat="51.21469562165" lon="4.482633582118">
        <ele>1.4</ele>
        <time>2019-06-04T19:34:30Z</time>
      </trkpt>
      <trkpt lat="51.214875916319" lon="4.482484049022">
        <ele>3</ele>
        <time>2019-06-04T19:34:37Z</time>
      </trkpt>
      <trkpt lat="51.215062916508" lon="4.482491257456">
        <ele>2.6</ele>
        <time>2019-06-04T19:34:44Z</time>
      </trkpt>
      <trkpt lat="51.215231644155" lon="4.482625200218">
        <ele>4.4</ele>
        <time>2019-06-04T19:34:51Z</time>
      </trkpt>
      <trkpt lat="51.215376734844" lon="4.482818403013">
        <ele>3</ele>
        <time>2019-06-04T19:34:58Z</time>
      </trkpt>
      <trkpt lat="51.215435408144" lon="4.483092323505">
        <ele>1.4</ele>
        <time>2019-06-04T19:35:05Z</time>
      </trkpt>
      <trkpt lat="51.2154541836" lon="4.48339197643">
        <ele>0.4</ele>
        <time>2019-06-04T19:35:12Z</time>
      </trkpt>
      <trkpt lat="51.215466002079" lon="4.483689282423">
        <ele>1</ele>
        <time>2019-06-04T19:35:19Z</time>
      </trkpt>
      <trkpt lat="51.215450244107" lon="4.483974602299">
        <ele>0</ele>
        <time>2019-06-04T19:35:26Z</time>
      </trkpt>
      <trkpt lat="51.21546088912" lon="4.484269226084">
        <ele>0.2</ele>
        <time>2019-06-04T19:35:35Z</time>
      </trkpt>
      <trkpt lat="51.215368604401" lon="4.484784796753">
        <ele>0.4</ele>
        <time>2019-06-04T19:44:27Z</time>
      </trkpt>
      <trkpt lat="51.215361898881" lon="4.485116636174">
        <ele>1.8</ele>
        <time>2019-06-04T19:44:35Z</time>
      </trkpt>
      <trkpt lat="51.215420404543" lon="4.485416372918">
        <ele>2</ele>
        <time>2019-06-04T19:44:42Z</time>
      </trkpt>
      <trkpt lat="51.215421661828" lon="4.485540676495">
        <ele>2.8</ele>
        <time>2019-06-04T19:44:45Z</time>
      </trkpt>
    </trkseg>
  </trk>
</gpx>